Time;durP1;ratioP1;P1;durP2;ratioP2;P2;SDS_P1;SDS_P2;PMS_P1;PMS_P2;Temp;Humidity;BMP_temperature;BMP_pressure;BME280_temperature;BME280_humidity;BME280_pressure;Samples;Min_cycle;Max_cycle;Signal;HPM_P1;HPM_P2
2021/09/08 00:01:56;;;;;;;11.40;9.00;;;15.70;99.90;;;;;;5073458;28;20216;-62
2021/09/08 00:04:23;;;;;;;12.90;8.40;;;15.70;99.90;;;;;;5072999;28;20636;-62
2021/09/08 00:06:50;;;;;;;8.80;7.87;;;15.70;99.90;;;;;;5073439;28;20205;-62
2021/09/08 00:09:17;;;;;;;9.87;8.63;;;15.60;99.90;;;;;;5072689;28;20770;-62
2021/09/08 00:11:44;;;;;;;9.80;8.37;;;15.60;99.90;;;;;;5074095;28;20205;-62
2021/09/08 00:14:11;;;;;;;10.77;8.57;;;15.50;99.90;;;;;;5072910;28;20212;-63
2021/09/08 00:16:38;;;;;;;11.00;8.67;;;15.60;99.90;;;;;;5072820;28;20673;-62
2021/09/08 00:19:06;;;;;;;10.50;8.57;;;15.60;99.90;;;;;;5072621;28;20575;-62
2021/09/08 00:21:32;;;;;;;10.60;8.67;;;15.50;99.90;;;;;;5073034;28;20200;-62
2021/09/08 00:23:59;;;;;;;8.97;8.07;;;15.50;99.90;;;;;;5072860;28;20212;-62
2021/09/08 00:26:26;;;;;;;9.30;8.40;;;15.50;99.90;;;;;;5072627;28;20212;-62
2021/09/08 00:28:53;;;;;;;13.80;8.70;;;15.50;99.90;;;;;;5072375;28;20719;-62
2021/09/08 00:31:20;;;;;;;9.40;8.40;;;15.60;99.90;;;;;;5072572;28;20232;-62
2021/09/08 00:33:46;;;;;;;10.70;8.67;;;15.60;99.90;;;;;;5072484;28;20216;-62
2021/09/08 00:36:14;;;;;;;11.50;8.63;;;15.60;99.90;;;;;;5072902;28;20205;-62
2021/09/08 00:38:41;;;;;;;12.37;8.43;;;15.60;99.90;;;;;;5072480;28;20229;-62
2021/09/08 00:41:08;;;;;;;9.90;8.50;;;15.60;99.90;;;;;;5072625;28;20212;-62
2021/09/08 00:43:34;;;;;;;10.57;8.23;;;15.60;99.90;;;;;;5072604;28;20237;-62
2021/09/08 00:46:01;;;;;;;11.53;8.60;;;15.60;99.90;;;;;;5072352;28;20208;-62
2021/09/08 00:48:28;;;;;;;10.60;8.03;;;15.60;99.90;;;;;;5072351;28;20286;-62
2021/09/08 00:50:56;;;;;;;11.00;9.17;;;15.60;99.90;;;;;;5072437;28;20232;-62
2021/09/08 00:53:24;;;;;;;10.83;8.70;;;15.60;99.90;;;;;;5072380;28;20216;-62
2021/09/08 00:55:52;;;;;;;12.53;9.63;;;15.60;99.90;;;;;;5072301;28;20583;-62
2021/09/08 00:58:19;;;;;;;11.60;8.77;;;15.60;99.90;;;;;;5072258;28;20225;-62
2021/09/08 01:00:45;;;;;;;11.93;8.67;;;15.60;99.90;;;;;;5072258;28;20606;-62
2021/09/08 01:03:12;;;;;;;9.63;8.63;;;15.60;99.90;;;;;;5072179;28;20216;-62
2021/09/08 01:05:39;;;;;;;10.67;8.53;;;15.50;99.90;;;;;;5072193;28;20219;-62
2021/09/08 01:08:07;;;;;;;9.43;8.43;;;15.50;99.90;;;;;;5072014;28;20208;-62
2021/09/08 01:10:35;;;;;;;11.60;9.07;;;15.40;99.90;;;;;;5072020;28;20225;-62
2021/09/08 01:13:02;;;;;;;10.90;8.83;;;15.40;99.90;;;;;;5072336;28;20209;-62
2021/09/08 01:15:29;;;;;;;9.50;8.50;;;15.40;99.90;;;;;;5072142;28;20208;-62
2021/09/08 01:17:56;;;;;;;11.50;8.87;;;15.40;99.90;;;;;;5072064;28;20204;-62
2021/09/08 01:20:22;;;;;;;9.67;8.67;;;15.30;99.90;;;;;;5071779;28;20209;-62
2021/09/08 01:22:52;;;;;;;10.57;9.10;;;15.30;99.90;;;;;;5071669;28;20205;-62
2021/09/08 01:25:20;;;;;;;10.10;8.40;;;15.30;99.90;;;;;;5071483;28;20218;-62
2021/09/08 01:27:47;;;;;;;12.07;8.50;;;15.20;99.90;;;;;;5071308;28;20209;-62
2021/09/08 01:30:16;;;;;;;11.20;8.60;;;15.20;99.90;;;;;;5071470;28;20722;-62
2021/09/08 01:32:43;;;;;;;9.27;8.23;;;15.10;99.90;;;;;;5071541;28;20204;-62
2021/09/08 01:35:10;;;;;;;9.20;8.30;;;15.10;99.90;;;;;;5071312;28;20212;-62
2021/09/08 01:37:37;;;;;;;10.23;8.13;;;15.10;99.90;;;;;;5071216;28;20201;-63
2021/09/08 01:40:07;;;;;;;11.37;8.70;;;15.00;99.90;;;;;;5071110;28;20295;-63
2021/09/08 01:42:33;;;;;;;12.43;9.50;;;15.00;99.90;;;;;;5071673;28;20215;-63
2021/09/08 01:45:00;;;;;;;13.83;9.07;;;15.00;99.90;;;;;;5071289;28;20217;-63
2021/09/08 01:47:27;;;;;;;10.33;8.87;;;15.00;99.90;;;;;;5071168;28;20209;-63
2021/09/08 01:49:53;;;;;;;11.37;8.87;;;15.00;99.90;;;;;;5070890;28;20232;-63
2021/09/08 01:52:20;;;;;;;10.13;9.00;;;15.00;99.90;;;;;;5071009;28;20607;-63
2021/09/08 01:54:47;;;;;;;11.30;8.80;;;14.90;99.90;;;;;;5070760;28;20204;-63
2021/09/08 01:57:15;;;;;;;14.63;9.53;;;14.90;99.90;;;;;;5071212;28;20583;-63
2021/09/08 01:59:42;;;;;;;12.30;10.17;;;14.90;99.90;;;;;;5070667;28;20724;-63
2021/09/08 02:02:09;;;;;;;11.20;9.30;;;14.90;99.90;;;;;;5070844;28;20208;-63
2021/09/08 02:04:36;;;;;;;11.00;9.23;;;14.90;99.90;;;;;;5071221;28;20648;-63
2021/09/08 02:07:04;;;;;;;10.50;9.30;;;14.90;99.90;;;;;;5070399;28;20567;-63
2021/09/08 02:09:31;;;;;;;9.90;8.90;;;14.90;99.90;;;;;;5070417;28;20229;-63
2021/09/08 02:11:58;;;;;;;10.97;8.50;;;14.90;99.90;;;;;;5070996;28;20246;-63
2021/09/08 02:14:26;;;;;;;11.57;9.47;;;14.90;99.90;;;;;;5070695;28;20208;-63
2021/09/08 02:16:52;;;;;;;13.40;9.40;;;14.80;99.90;;;;;;5070750;28;20781;-63
2021/09/08 02:19:19;;;;;;;10.40;8.77;;;14.80;99.90;;;;;;5070636;28;20228;-62
2021/09/08 02:21:46;;;;;;;12.77;9.77;;;14.80;99.90;;;;;;5070758;28;20319;-63
2021/09/08 02:24:12;;;;;;;11.80;9.60;;;14.80;99.90;;;;;;5070565;28;20624;-63
2021/09/08 02:26:39;;;;;;;10.50;8.83;;;14.70;99.90;;;;;;5070933;28;20266;-63
2021/09/08 02:29:06;;;;;;;12.07;9.30;;;14.70;99.90;;;;;;5070445;28;20630;-63
2021/09/08 02:31:34;;;;;;;12.30;9.10;;;14.60;99.90;;;;;;5070736;28;20235;-63
2021/09/08 02:34:00;;;;;;;10.50;9.20;;;14.60;99.90;;;;;;5070546;28;20209;-63
2021/09/08 02:36:27;;;;;;;13.10;9.53;;;14.60;99.90;;;;;;5070503;28;20676;-63
2021/09/08 02:38:54;;;;;;;10.97;9.73;;;14.50;99.90;;;;;;5070591;28;20229;-63
2021/09/08 02:41:22;;;;;;;10.43;9.33;;;14.50;99.90;;;;;;5070878;28;20572;-63
2021/09/08 02:43:49;;;;;;;10.53;9.47;;;14.40;99.90;;;;;;5070605;28;20275;-63
2021/09/08 02:46:15;;;;;;;12.10;9.40;;;14.40;99.90;;;;;;5070885;28;20710;-63
2021/09/08 02:48:43;;;;;;;12.40;9.97;;;14.40;99.90;;;;;;5070500;28;20236;-63
2021/09/08 02:51:10;;;;;;;11.77;9.40;;;14.50;99.90;;;;;;5070472;28;20228;-63
2021/09/08 02:53:37;;;;;;;13.00;9.40;;;14.50;99.90;;;;;;5070723;28;20212;-63
2021/09/08 02:56:04;;;;;;;11.23;9.63;;;14.50;99.90;;;;;;5070555;28;20235;-63
2021/09/08 02:58:31;;;;;;;15.37;9.43;;;14.50;99.90;;;;;;5070380;28;20634;-63
2021/09/08 03:00:59;;;;;;;12.73;10.23;;;14.50;99.90;;;;;;5070612;28;20205;-63
2021/09/08 03:03:25;;;;;;;13.30;9.57;;;14.50;99.90;;;;;;5070427;28;20209;-63
2021/09/08 03:05:53;;;;;;;12.37;9.93;;;14.50;99.90;;;;;;5070430;28;20231;-61
2021/09/08 03:08:20;;;;;;;15.27;10.20;;;14.40;99.90;;;;;;5070447;28;20277;-62
2021/09/08 03:10:47;;;;;;;10.80;9.70;;;14.40;99.90;;;;;;5070351;28;20220;-61
2021/09/08 03:13:15;;;;;;;13.13;10.00;;;14.30;99.90;;;;;;5070291;28;20708;-61
2021/09/08 03:15:42;;;;;;;11.70;10.50;;;14.30;99.90;;;;;;5070216;28;20212;-62
2021/09/08 03:18:09;;;;;;;12.60;10.30;;;14.30;99.90;;;;;;5070100;28;20224;-62
2021/09/08 03:20:36;;;;;;;12.20;10.10;;;14.30;99.90;;;;;;5074180;28;20235;-62
2021/09/08 03:23:04;;;;;;;11.97;10.67;;;14.30;99.90;;;;;;5073986;28;20205;-62
2021/09/08 03:25:32;;;;;;;13.37;10.97;;;14.20;99.90;;;;;;5073809;28;20232;-62
2021/09/08 03:27:59;;;;;;;15.60;11.77;;;14.20;99.90;;;;;;5073642;28;20208;-62
2021/09/08 03:30:26;;;;;;;17.37;11.23;;;14.20;99.90;;;;;;5116045;22;20239;-58
2021/09/08 03:32:53;;;;;;;14.00;12.00;;;14.10;99.90;;;;;;5094062;28;20208;-58
2021/09/08 03:35:20;;;;;;;13.60;11.53;;;14.10;99.90;;;;;;5093838;28;20211;-59
2021/09/08 03:37:47;;;;;;;15.87;11.83;;;14.10;99.90;;;;;;5094056;28;20633;-58
2021/09/08 03:40:15;;;;;;;16.37;11.80;;;14.10;99.90;;;;;;5094199;28;20220;-59
2021/09/08 03:42:42;;;;;;;15.77;12.27;;;14.10;99.90;;;;;;5094013;28;20212;-58
2021/09/08 03:45:10;;;;;;;12.43;11.13;;;14.00;99.90;;;;;;5093762;28;20551;-57
2021/09/08 03:47:36;;;;;;;13.00;10.83;;;14.00;99.90;;;;;;5094001;28;20208;-58
2021/09/08 03:50:04;;;;;;;11.50;10.30;;;14.00;99.90;;;;;;5093635;28;20277;-59
2021/09/08 03:52:31;;;;;;;16.20;11.23;;;14.00;99.90;;;;;;5093958;28;20584;-58
2021/09/08 03:54:57;;;;;;;13.53;10.83;;;14.00;99.90;;;;;;5093825;28;20204;-58
2021/09/08 03:57:26;;;;;;;12.43;10.50;;;14.00;99.90;;;;;;5093930;28;20207;-56
2021/09/08 03:59:52;;;;;;;15.37;10.60;;;13.90;99.90;;;;;;5093609;28;20642;-56
2021/09/08 04:02:19;;;;;;;13.80;10.57;;;13.90;99.90;;;;;;5093934;28;20200;-57
2021/09/08 04:04:46;;;;;;;15.13;12.10;;;13.90;99.90;;;;;;5093934;28;20204;-56
2021/09/08 04:07:12;;;;;;;13.90;11.17;;;13.80;99.90;;;;;;5093834;28;20616;-56
2021/09/08 04:09:39;;;;;;;21.67;11.80;;;13.80;99.90;;;;;;5093355;28;20228;-56
2021/09/08 04:12:06;;;;;;;13.33;10.97;;;13.80;99.90;;;;;;5093690;28;20220;-57
2021/09/08 04:14:34;;;;;;;12.60;10.93;;;13.80;99.90;;;;;;5093614;28;20208;-56
2021/09/08 04:17:01;;;;;;;12.00;10.50;;;13.80;99.90;;;;;;5093573;28;20521;-56
2021/09/08 04:19:28;;;;;;;13.10;10.77;;;13.70;99.90;;;;;;5093264;28;20643;-56
2021/09/08 04:21:54;;;;;;;14.90;11.30;;;13.70;99.90;;;;;;5093426;28;20208;-56
2021/09/08 04:24:21;;;;;;;13.77;10.73;;;13.70;99.90;;;;;;5093295;28;20208;-56
2021/09/08 04:26:48;;;;;;;11.63;10.43;;;13.60;99.90;;;;;;5093345;28;20208;-57
2021/09/08 04:29:14;;;;;;;14.10;10.90;;;13.60;99.90;;;;;;5093477;28;20232;-58
2021/09/08 04:31:43;;;;;;;12.03;10.53;;;13.50;99.90;;;;;;5093418;28;20734;-57
2021/09/08 04:34:09;;;;;;;12.43;10.13;;;13.50;99.90;;;;;;5094377;28;20208;-58
2021/09/08 04:36:36;;;;;;;12.37;10.97;;;13.40;99.90;;;;;;5094762;28;20224;-56
2021/09/08 04:39:04;;;;;;;12.00;10.70;;;13.50;99.90;;;;;;5093019;28;20224;-57
2021/09/08 04:41:31;;;;;;;14.50;10.67;;;13.40;99.90;;;;;;5092852;28;20204;-56
2021/09/08 04:43:58;;;;;;;12.37;10.93;;;13.40;99.90;;;;;;5093102;28;20459;-56
2021/09/08 04:46:24;;;;;;;14.07;11.77;;;13.40;99.90;;;;;;5092899;28;20204;-55
2021/09/08 04:48:52;;;;;;;14.73;10.93;;;13.50;99.90;;;;;;5092786;28;20228;-57
2021/09/08 04:51:19;;;;;;;15.20;11.40;;;13.50;99.90;;;;;;5092640;28;20227;-56
2021/09/08 04:53:46;;;;;;;14.63;11.13;;;13.50;99.90;;;;;;5092696;28;20204;-57
2021/09/08 04:56:12;;;;;;;14.07;10.73;;;13.60;99.90;;;;;;5092468;28;20201;-56
2021/09/08 04:58:39;;;;;;;15.37;11.17;;;13.50;99.90;;;;;;5092519;28;20224;-56
2021/09/08 05:01:06;;;;;;;13.20;10.60;;;13.50;99.90;;;;;;5092586;28;20548;-57
2021/09/08 05:03:33;;;;;;;13.33;10.80;;;13.50;99.90;;;;;;5092468;28;20204;-57
2021/09/08 05:06:01;;;;;;;11.73;10.50;;;13.60;99.90;;;;;;5092515;28;20236;-55
2021/09/08 05:08:28;;;;;;;12.23;10.70;;;13.60;99.90;;;;;;5092887;28;20211;-55
2021/09/08 05:10:55;;;;;;;13.33;10.43;;;13.60;99.90;;;;;;5091991;28;20231;-57
2021/09/08 05:13:21;;;;;;;13.70;10.63;;;13.60;99.90;;;;;;5092463;28;20208;-55
2021/09/08 05:15:48;;;;;;;14.57;10.93;;;13.60;99.90;;;;;;5092317;28;20204;-58
2021/09/08 05:18:15;;;;;;;12.87;10.30;;;13.60;99.90;;;;;;5092190;28;20278;-55
2021/09/08 05:20:43;;;;;;;10.90;9.47;;;13.60;99.90;;;;;;5092136;28;20212;-55
2021/09/08 05:23:11;;;;;;;17.53;10.60;;;13.60;99.90;;;;;;5091766;28;20204;-56
2021/09/08 05:25:38;;;;;;;12.73;9.60;;;13.60;99.90;;;;;;5092173;28;20211;-56
2021/09/08 05:28:04;;;;;;;13.80;10.60;;;13.70;99.90;;;;;;5091955;28;20212;-55
2021/09/08 05:30:31;;;;;;;13.63;10.27;;;13.70;99.90;;;;;;5091849;28;20240;-56
2021/09/08 05:32:58;;;;;;;13.53;10.53;;;13.80;99.90;;;;;;5091821;28;20228;-56
2021/09/08 05:35:25;;;;;;;11.83;9.63;;;13.90;99.90;;;;;;5091975;28;20204;-56
2021/09/08 05:37:51;;;;;;;14.17;10.00;;;13.90;99.90;;;;;;5091718;28;20208;-57
2021/09/08 05:40:20;;;;;;;12.33;9.57;;;14.00;99.90;;;;;;5092108;28;20232;-57
2021/09/08 05:42:46;;;;;;;13.73;10.53;;;14.00;99.90;;;;;;5090561;28;20211;-56
2021/09/08 05:45:13;;;;;;;14.20;10.87;;;14.10;99.90;;;;;;5091512;28;20577;-57
2021/09/08 05:47:40;;;;;;;10.27;9.27;;;14.30;99.90;;;;;;5091548;28;20204;-56
2021/09/08 05:50:08;;;;;;;14.40;10.23;;;14.80;99.90;;;;;;5091213;28;20228;-55
2021/09/08 05:52:35;;;;;;;12.40;8.37;;;15.60;99.90;;;;;;5091456;28;20232;-56
2021/09/08 05:55:01;;;;;;;11.27;8.63;;;16.60;99.90;;;;;;5091308;28;20204;-56
2021/09/08 05:57:29;;;;;;;9.77;8.15;;;17.50;99.90;;;;;;5091563;28;20650;-56
2021/09/08 05:59:56;;;;;;;10.27;8.50;;;18.50;99.90;;;;;;5091401;28;20224;-56
2021/09/08 06:02:23;;;;;;;13.15;8.30;;;19.30;99.90;;;;;;5091362;28;20200;-57
2021/09/08 06:04:49;;;;;;;9.88;7.95;;;20.20;99.90;;;;;;5091077;28;20602;-57
2021/09/08 06:07:16;;;;;;;12.13;8.05;;;21.00;99.90;;;;;;5091756;28;20557;-55
2021/09/08 06:09:43;;;;;;;9.82;8.25;;;21.80;99.90;;;;;;5091253;28;20235;-58
2021/09/08 06:12:09;;;;;;;8.68;7.68;;;22.40;99.90;;;;;;5091410;28;20235;-58
2021/09/08 06:14:37;;;;;;;9.63;7.43;;;23.00;99.90;;;;;;5091308;28;20246;-56
2021/09/08 06:17:05;;;;;;;10.05;7.97;;;23.60;99.90;;;;;;5091529;28;20211;-56
2021/09/08 06:19:31;;;;;;;10.15;7.50;;;24.20;99.90;;;;;;5090945;28;20239;-57
2021/09/08 06:21:58;;;;;;;9.57;7.18;;;24.80;99.90;;;;;;5091373;28;20203;-56
2021/09/08 06:24:25;;;;;;;11.57;7.25;;;25.40;99.90;;;;;;5091159;28;20257;-56
2021/09/08 06:26:51;;;;;;;11.02;7.90;;;26.10;99.90;;;;;;5091415;28;20208;-59
2021/09/08 06:29:18;;;;;;;10.50;7.57;;;26.90;99.90;;;;;;5090949;28;20289;-56
2021/09/08 06:31:47;;;;;;;9.80;8.65;;;27.40;97.80;;;;;;5091192;28;20232;-54
2021/09/08 06:34:13;;;;;;;10.43;8.50;;;27.60;96.50;;;;;;5091199;28;20208;-54
2021/09/08 06:36:40;;;;;;;9.23;7.35;;;27.80;95.90;;;;;;5091307;28;20237;-57
2021/09/08 06:39:07;;;;;;;11.65;7.47;;;28.40;93.70;;;;;;5091297;28;20327;-55
2021/09/08 06:41:33;;;;;;;12.40;7.50;;;28.90;92.80;;;;;;5091289;28;20232;-55
2021/09/08 06:44:00;;;;;;;18.30;9.25;;;29.50;91.00;;;;;;5091279;28;20209;-61
2021/09/08 06:46:27;;;;;;;14.60;8.05;;;30.20;89.20;;;;;;5090662;28;20204;-59
2021/09/08 06:48:55;;;;;;;12.32;8.02;;;30.80;84.80;;;;;;5092223;28;20300;-61
2021/09/08 06:51:22;;;;;;;18.60;7.80;;;31.30;81.40;;;;;;5090781;28;20783;-60
2021/09/08 06:53:48;;;;;;;11.43;7.85;;;31.60;79.20;;;;;;5093249;28;20203;-60
2021/09/08 06:56:15;;;;;;;8.15;7.35;;;31.80;77.80;;;;;;5102137;28;20208;-61
2021/09/08 06:58:42;;;;;;;8.65;6.93;;;31.90;76.60;;;;;;5102296;28;20344;-61
2021/09/08 07:01:08;;;;;;;8.52;6.90;;;32.10;74.10;;;;;;5101089;28;20204;-61
2021/09/08 07:03:35;;;;;;;12.75;7.20;;;32.30;71.30;;;;;;5102131;28;20204;-61
2021/09/08 07:06:03;;;;;;;9.57;6.68;;;32.60;69.90;;;;;;5102451;28;20618;-61
2021/09/08 07:08:30;;;;;;;8.05;6.88;;;32.80;68.00;;;;;;5101713;28;20282;-61
2021/09/08 07:10:57;;;;;;;8.75;6.82;;;32.80;66.70;;;;;;5101471;28;20200;-62
2021/09/08 07:13:23;;;;;;;10.70;6.97;;;32.90;65.50;;;;;;5102126;28;20231;-60
2021/09/08 07:15:50;;;;;;;9.23;7.03;;;33.20;63.80;;;;;;5095346;28;20671;-60
2021/09/08 07:18:17;;;;;;;8.85;6.82;;;33.50;62.70;;;;;;5095228;28;20669;-59
2021/09/08 07:20:43;;;;;;;7.38;6.63;;;33.70;61.10;;;;;;5095230;28;20588;-59
2021/09/08 07:23:11;;;;;;;7.63;6.25;;;33.70;60.70;;;;;;5095128;28;20208;-59
2021/09/08 07:25:38;;;;;;;9.27;7.05;;;33.30;60.90;;;;;;5094611;28;20683;-58
2021/09/08 07:28:05;;;;;;;9.38;6.53;;;33.10;61.80;;;;;;5094442;28;20211;-59
2021/09/08 07:30:33;;;;;;;7.63;6.55;;;33.10;60.60;;;;;;5094499;28;20656;-59
2021/09/08 07:33:00;;;;;;;7.78;6.55;;;33.10;60.70;;;;;;5094749;28;20670;-59
2021/09/08 07:35:27;;;;;;;6.68;5.90;;;32.90;60.30;;;;;;5094134;28;20577;-59
2021/09/08 07:37:54;;;;;;;9.52;6.30;;;32.70;60.40;;;;;;5094277;28;20211;-59
2021/09/08 07:40:23;;;;;;;7.82;5.93;;;32.90;60.10;;;;;;5094145;28;20228;-59
2021/09/08 07:42:51;;;;;;;7.25;6.07;;;33.30;59.90;;;;;;5094167;28;20291;-59
2021/09/08 07:45:18;;;;;;;7.57;6.05;;;33.70;58.90;;;;;;5094360;28;20220;-59
2021/09/08 07:47:44;;;;;;;10.68;6.00;;;33.70;57.90;;;;;;5093750;28;20733;-59
2021/09/08 07:50:11;;;;;;;7.25;6.50;;;33.20;58.50;;;;;;5094234;28;20227;-59
2021/09/08 07:52:38;;;;;;;6.93;6.22;;;33.00;58.80;;;;;;5094640;28;20224;-60
2021/09/08 07:55:06;;;;;;;7.50;6.55;;;33.20;58.90;;;;;;5093995;28;20216;-60
2021/09/08 07:57:35;;;;;;;7.30;6.18;;;33.60;59.00;;;;;;5094489;28;20575;-59
2021/09/08 08:00:01;;;;;;;9.05;6.63;;;34.10;57.30;;;;;;5094005;28;20574;-58
2021/09/08 08:02:28;;;;;;;7.60;6.53;;;34.00;57.40;;;;;;5094464;28;20208;-62
2021/09/08 08:04:55;;;;;;;9.63;6.65;;;33.30;58.80;;;;;;5092741;28;20204;-60
2021/09/08 08:07:21;;;;;;;9.65;7.05;;;32.30;60.40;;;;;;5093612;28;20208;-60
2021/09/08 08:09:48;;;;;;;7.43;6.13;;;31.10;63.10;;;;;;5093781;28;20749;-60
2021/09/08 08:12:15;;;;;;;7.03;6.07;;;29.90;65.20;;;;;;5093995;28;20232;-60
2021/09/08 08:14:43;;;;;;;7.60;6.43;;;28.90;68.10;;;;;;5094897;28;20581;-59
2021/09/08 08:17:09;;;;;;;8.45;6.43;;;28.00;70.90;;;;;;5095729;28;20592;-62
2021/09/08 08:19:36;;;;;;;6.80;6.03;;;27.20;73.30;;;;;;5093360;28;20228;-59
2021/09/08 08:22:03;;;;;;;9.85;6.47;;;26.50;75.20;;;;;;5093311;28;20204;-59
2021/09/08 08:24:29;;;;;;;8.30;6.10;;;25.90;77.10;;;;;;5092934;28;20208;-58
2021/09/08 08:26:58;;;;;;;8.85;6.53;;;25.20;79.50;;;;;;5093354;28;20607;-59
2021/09/08 08:29:25;;;;;;;7.47;6.00;;;24.80;81.00;;;;;;5092878;28;20232;-62
2021/09/08 08:31:53;;;;;;;7.90;6.07;;;24.20;83.90;;;;;;5093198;28;20699;-60
2021/09/08 08:34:19;;;;;;;9.35;6.25;;;23.90;86.70;;;;;;5093369;28;20212;-58
2021/09/08 08:36:46;;;;;;;8.85;6.63;;;23.80;87.50;;;;;;5092944;28;20208;-59
2021/09/08 08:39:13;;;;;;;7.47;6.00;;;23.70;90.00;;;;;;5092702;28;20223;-59
2021/09/08 08:41:40;;;;;;;7.13;5.57;;;23.70;90.10;;;;;;5093091;28;20205;-58
2021/09/08 08:44:07;;;;;;;7.35;6.10;;;23.80;89.30;;;;;;5092614;28;20676;-59
2021/09/08 08:46:34;;;;;;;8.57;5.80;;;23.80;90.10;;;;;;5092513;28;20730;-58
2021/09/08 08:49:03;;;;;;;10.15;6.88;;;23.90;90.10;;;;;;5092506;28;20228;-59
2021/09/08 08:51:31;;;;;;;8.15;6.43;;;23.80;90.60;;;;;;5092685;28;20261;-58
2021/09/08 08:53:57;;;;;;;8.00;6.25;;;23.80;91.20;;;;;;5092855;28;20220;-58
2021/09/08 08:56:24;;;;;;;9.02;6.03;;;23.90;91.30;;;;;;5092567;28;20240;-59
2021/09/08 08:58:52;;;;;;;7.00;6.13;;;23.90;91.00;;;;;;5092254;28;20266;-58
2021/09/08 09:01:20;;;;;;;8.30;6.07;;;23.90;92.00;;;;;;5092590;28;20227;-58
2021/09/08 09:04:06;;;;;;;6.65;5.80;;;24.10;91.80;;;;;;5092385;28;20287;-59
2021/09/08 09:06:33;;;;;;;7.55;5.80;;;24.10;91.60;;;;;;5092654;28;20200;-66
2021/09/08 09:09:03;;;;;;;7.28;5.95;;;24.20;91.30;;;;;;5089248;28;20789;-60
2021/09/08 09:11:30;;;;;;;7.65;6.30;;;24.10;91.50;;;;;;5092245;28;20216;-61
2021/09/08 09:13:57;;;;;;;7.07;6.07;;;24.00;91.70;;;;;;5092435;28;20236;-62
2021/09/08 09:16:28;;;;;;;8.23;5.85;;;24.10;91.80;;;;;;5092148;28;20216;-58
2021/09/08 09:18:55;;;;;;;8.77;6.40;;;23.90;91.90;;;;;;5092123;28;20232;-56
2021/09/08 09:21:25;;;;;;;8.50;5.90;;;23.90;92.50;;;;;;5092618;28;20204;-61
2021/09/08 09:23:53;;;;;;;7.70;5.90;;;24.00;92.90;;;;;;5092390;28;20204;-63
2021/09/08 09:26:22;;;;;;;7.20;5.88;;;24.00;92.70;;;;;;5092607;28;20479;-62
2021/09/08 09:28:50;;;;;;;8.77;6.53;;;24.10;93.10;;;;;;5092504;28;20259;-66
2021/09/08 09:31:18;;;;;;;8.23;6.25;;;24.30;93.50;;;;;;5091970;28;20201;-64
2021/09/08 09:33:46;;;;;;;8.95;5.97;;;24.40;93.00;;;;;;5092198;28;20227;-63
2021/09/08 09:36:18;;;;;;;8.15;6.38;;;24.60;93.00;;;;;;5092309;28;20208;-59
2021/09/08 09:38:49;;;;;;;9.77;6.07;;;24.60;93.00;;;;;;5091645;28;20792;-60
2021/09/08 09:41:21;;;;;;;7.63;6.20;;;24.60;93.50;;;;;;5091825;28;20208;-56
2021/09/08 09:43:48;;;;;;;8.90;7.07;;;24.60;93.60;;;;;;5091851;28;20748;-63
2021/09/08 09:46:15;;;;;;;7.90;6.50;;;24.70;93.50;;;;;;5091702;28;20211;-62
2021/09/08 09:48:41;;;;;;;8.70;6.05;;;24.80;93.90;;;;;;5091463;28;20224;-62
2021/09/08 09:51:11;;;;;;;8.50;6.15;;;24.80;93.60;;;;;;5091561;28;20676;-61
2021/09/08 09:53:39;;;;;;;9.55;6.20;;;24.80;93.90;;;;;;5091296;28;20289;-61
2021/09/08 09:56:07;;;;;;;7.32;6.22;;;24.90;93.50;;;;;;5091158;28;20204;-61
2021/09/08 09:58:36;;;;;;;7.07;5.93;;;25.00;93.60;;;;;;5090962;28;20240;-60
2021/09/08 10:01:04;;;;;;;7.47;5.70;;;25.20;93.20;;;;;;5091371;28;20204;-60
2021/09/08 10:03:31;;;;;;;7.97;5.80;;;25.30;92.30;;;;;;5090690;28;20239;-58
2021/09/08 10:06:00;;;;;;;7.25;5.15;;;25.40;92.00;;;;;;5091103;28;20200;-60
2021/09/08 10:08:28;;;;;;;8.60;6.05;;;25.30;92.10;;;;;;5090737;28;20232;-59
2021/09/08 10:10:58;;;;;;;7.43;5.93;;;25.20;92.60;;;;;;5090878;28;20239;-60
2021/09/08 10:13:29;;;;;;;9.02;5.68;;;25.20;92.60;;;;;;5090924;28;20224;-60
2021/09/08 10:15:56;;;;;;;7.72;5.55;;;25.20;91.90;;;;;;5091180;28;20660;-60
2021/09/08 10:18:25;;;;;;;5.63;5.00;;;25.20;91.10;;;;;;5090758;28;20212;-60
2021/09/08 10:21:01;;;;;;;5.85;5.25;;;25.40;90.30;;;;;;5091206;28;20626;-60
2021/09/08 10:23:28;;;;;;;5.60;4.97;;;25.50;89.90;;;;;;5090849;28;20232;-59
2021/09/08 10:25:57;;;;;;;9.55;5.32;;;25.40;89.40;;;;;;5090738;28;20215;-61
2021/09/08 10:28:27;;;;;;;7.00;5.85;;;25.30;90.00;;;;;;5089804;28;20585;-60
2021/09/08 10:30:54;;;;;;;5.85;5.22;;;25.30;90.60;;;;;;5090974;28;20280;-60
2021/09/08 10:33:21;;;;;;;7.30;5.53;;;25.40;90.30;;;;;;5090648;28;20224;-61
2021/09/08 10:35:49;;;;;;;7.13;5.15;;;25.50;89.40;;;;;;5090287;28;20208;-61
2021/09/08 10:38:18;;;;;;;6.88;5.32;;;25.60;89.10;;;;;;5090541;28;20204;-61
2021/09/08 10:40:46;;;;;;;8.18;5.57;;;25.70;88.20;;;;;;5091227;28;20208;-61
2021/09/08 10:43:13;;;;;;;6.60;5.18;;;25.80;88.30;;;;;;5090812;28;20207;-61
2021/09/08 10:45:51;;;;;;;6.43;5.07;;;25.90;88.30;;;;;;5090488;28;20572;-59
2021/09/08 10:48:38;;;;;;;6.60;5.90;;;26.20;86.90;;;;;;5090362;28;20581;-59
2021/09/08 10:51:06;;;;;;;6.00;5.03;;;26.30;87.00;;;;;;5090986;28;20215;-59
2021/09/08 10:53:38;;;;;;;8.88;5.47;;;26.40;86.90;;;;;;5090883;28;20231;-60
2021/09/08 10:56:06;;;;;;;6.30;5.38;;;26.50;85.70;;;;;;5090910;28;20204;-59
2021/09/08 10:58:57;;;;;;;8.85;5.07;;;26.50;85.30;;;;;;5090756;28;20204;-57
2021/09/08 11:01:26;;;;;;;6.63;5.10;;;26.50;85.80;;;;;;5090875;28;20203;-60
2021/09/08 11:03:53;;;;;;;9.10;5.45;;;26.40;85.50;;;;;;5090740;28;20196;-59
2021/09/08 11:06:36;;;;;;;5.60;5.07;;;26.50;85.60;;;;;;5090115;28;20216;-59
2021/09/08 11:09:04;;;;;;;6.18;5.43;;;26.50;85.30;;;;;;5090205;28;20223;-59
2021/09/08 11:11:31;;;;;;;9.25;5.60;;;26.50;84.50;;;;;;5090810;28;20209;-58
2021/09/08 11:13:58;;;;;;;7.65;5.70;;;26.50;84.20;;;;;;5090001;28;20231;-58
2021/09/08 11:16:28;;;;;;;7.05;5.43;;;26.50;84.10;;;;;;5090845;28;20211;-62
2021/09/08 11:18:57;;;;;;;5.45;4.95;;;26.50;84.90;;;;;;5091170;28;20266;-61
2021/09/08 11:21:26;;;;;;;8.90;5.05;;;26.50;84.40;;;;;;5090806;28;20228;-60
2021/09/08 11:24:01;;;;;;;5.47;4.90;;;26.50;83.70;;;;;;5090983;28;20196;-60
2021/09/08 11:26:30;;;;;;;6.80;5.25;;;26.50;83.50;;;;;;5090613;28;20237;-62
2021/09/08 11:29:02;;;;;;;7.72;6.25;;;26.50;84.50;;;;;;5090403;28;20243;-61
2021/09/08 11:31:36;;;;;;;5.25;4.38;;;26.70;83.90;;;;;;5090984;28;20207;-61
2021/09/08 11:34:04;;;;;;;9.40;4.82;;;26.90;82.20;;;;;;5090044;28;20227;-60
2021/09/08 11:36:31;;;;;;;5.85;4.90;;;26.90;81.80;;;;;;5090233;28;20310;-59
2021/09/08 11:39:00;;;;;;;9.65;5.07;;;26.80;81.70;;;;;;5089559;28;20228;-60
2021/09/08 11:41:29;;;;;;;8.05;4.75;;;27.00;81.40;;;;;;5093843;28;20614;-59
2021/09/08 11:43:58;;;;;;;6.70;5.18;;;27.10;80.50;;;;;;5093825;28;20209;-59
2021/09/08 11:46:26;;;;;;;7.18;4.88;;;27.30;81.10;;;;;;5093820;28;20571;-59
2021/09/08 11:48:56;;;;;;;6.82;4.78;;;27.40;79.90;;;;;;5093965;28;20223;-59
2021/09/08 11:51:24;;;;;;;7.55;4.28;;;27.30;77.40;;;;;;5094132;28;20208;-55
2021/09/08 11:53:52;;;;;;;6.57;4.95;;;27.30;77.70;;;;;;5093622;28;20327;-54
2021/09/08 11:56:21;;;;;;;7.15;4.35;;;27.40;78.70;;;;;;5093696;28;20205;-55
2021/09/08 11:58:52;;;;;;;5.68;4.68;;;27.40;78.80;;;;;;5093408;28;20240;-57
2021/09/08 12:01:19;;;;;;;6.03;4.43;;;27.50;78.50;;;;;;5093871;28;20295;-55
2021/09/08 12:03:47;;;;;;;7.30;4.72;;;27.50;78.10;;;;;;5093868;28;20631;-55
2021/09/08 12:06:19;;;;;;;5.60;4.43;;;27.50;77.80;;;;;;5093976;28;20201;-58
2021/09/08 12:08:55;;;;;;;5.28;4.60;;;27.70;78.60;;;;;;5093375;28;20693;-55
2021/09/08 12:11:36;;;;;;;5.20;4.43;;;27.70;76.40;;;;;;5093336;28;20212;-55
2021/09/08 12:14:27;;;;;;;5.30;4.45;;;27.80;75.70;;;;;;5093360;28;20228;-55
2021/09/08 12:16:56;;;;;;;5.35;4.40;;;27.80;75.20;;;;;;5093719;28;20215;-55
2021/09/08 12:19:29;;;;;;;5.38;4.72;;;27.80;73.20;;;;;;5093378;28;20220;-55
2021/09/08 12:22:06;;;;;;;4.50;4.10;;;27.70;73.90;;;;;;5093442;28;20208;-55
2021/09/08 12:24:36;;;;;;;4.97;4.40;;;27.80;72.50;;;;;;5093883;28;20269;-55
2021/09/08 12:27:03;;;;;;;5.68;4.15;;;27.80;72.70;;;;;;5094262;28;20291;-58
2021/09/08 12:29:29;;;;;;;7.35;4.15;;;27.90;72.90;;;;;;5093227;28;20617;-53
2021/09/08 12:31:58;;;;;;;6.25;4.35;;;28.00;73.50;;;;;;5093672;28;20220;-56
2021/09/08 12:34:25;;;;;;;4.78;4.28;;;28.20;72.60;;;;;;5092977;28;20540;-53
2021/09/08 12:36:52;;;;;;;7.93;4.32;;;28.20;71.50;;;;;;5093062;28;20690;-54
2021/09/08 12:39:21;;;;;;;4.90;4.40;;;28.20;71.50;;;;;;5092643;28;20231;-53
2021/09/08 12:41:58;;;;;;;5.60;4.63;;;28.20;71.70;;;;;;5092905;28;20207;-54
2021/09/08 12:44:31;;;;;;;8.38;4.45;;;28.30;71.20;;;;;;5092652;28;20682;-54